createdAt,value
2022-10-15T00:00:51.758Z,12.97
2022-10-15T00:03:18.317Z,12.93
2022-10-15T00:05:44.947Z,12.91
2022-10-15T00:08:12.865Z,12.90
2022-10-15T00:10:39.435Z,12.89
2022-10-15T00:13:06.681Z,12.86
2022-10-15T00:15:36.526Z,12.87
2022-10-15T00:18:03.052Z,12.78
2022-10-15T00:20:30.157Z,12.73
2022-10-15T00:22:56.686Z,12.70
2022-10-15T00:25:23.403Z,12.66
2022-10-15T00:27:49.881Z,12.63
2022-10-15T00:30:17.905Z,12.57
2022-10-15T00:32:44.578Z,12.55
2022-10-15T00:35:11.053Z,12.50
2022-10-15T00:37:37.496Z,12.46
2022-10-15T00:40:04.985Z,12.43
2022-10-15T00:42:32.377Z,12.40
2022-10-15T00:44:59.954Z,12.36
2022-10-15T00:47:41.166Z,12.32
2022-10-15T00:50:12.615Z,12.25
2022-10-15T00:53:01.551Z,12.16
2022-10-15T00:55:34.354Z,12.08
2022-10-15T00:58:05.462Z,12.05
2022-10-15T01:00:33.108Z,12.04
2022-10-15T01:03:00.087Z,12.00
2022-10-15T01:05:28.977Z,11.94
2022-10-15T01:07:55.659Z,11.86
2022-10-15T01:10:27.620Z,11.79
2022-10-15T01:13:04.908Z,11.73
2022-10-15T01:15:46.490Z,11.65
2022-10-15T01:18:22.374Z,11.58
2022-10-15T01:21:27.357Z,11.49
2022-10-15T01:24:22.653Z,11.44
2022-10-15T01:27:13.451Z,11.33
2022-10-15T01:30:03.913Z,11.26
2022-10-15T01:32:37.997Z,11.22
2022-10-15T01:35:20.576Z,11.18
2022-10-15T01:38:07.296Z,11.19
2022-10-15T01:40:42.613Z,11.11
2022-10-15T01:43:15.463Z,11.08
2022-10-15T01:46:14.686Z,11.00
2022-10-15T01:48:49.403Z,10.95
2022-10-15T01:51:18.095Z,10.91
2022-10-15T01:53:46.710Z,10.83
2022-10-15T01:56:18.065Z,10.80
2022-10-15T01:58:46.998Z,10.78
2022-10-15T02:01:13.800Z,10.74
2022-10-15T02:03:50.906Z,10.70
2022-10-15T02:06:39.212Z,10.67
2022-10-15T02:09:57.425Z,10.67
2022-10-15T02:12:53.164Z,10.65
2022-10-15T02:15:28.418Z,10.66
2022-10-15T02:18:04.482Z,10.64
2022-10-15T02:20:45.351Z,10.59
2022-10-15T02:23:18.814Z,10.56
2022-10-15T02:25:47.515Z,10.54
2022-10-15T02:28:17.020Z,10.56
2022-10-15T02:30:46.913Z,10.52
2022-10-15T02:33:16.139Z,10.48
2022-10-15T02:35:44.898Z,10.45
2022-10-15T02:38:15.312Z,10.42
2022-10-15T02:40:44.810Z,10.46
2022-10-15T02:43:14.041Z,10.49
2022-10-15T02:45:41.381Z,10.52
2022-10-15T02:48:08.224Z,10.55
2022-10-15T02:50:34.954Z,10.49
2022-10-15T02:53:02.642Z,10.48
2022-10-15T02:55:29.166Z,10.43
2022-10-15T02:57:55.765Z,10.43
2022-10-15T03:00:22.727Z,10.49
2022-10-15T03:02:49.501Z,10.59
2022-10-15T03:05:18.515Z,10.66
2022-10-15T03:07:45.008Z,10.74
2022-10-15T03:10:11.600Z,10.74
2022-10-15T03:12:38.371Z,10.74
2022-10-15T03:15:06.353Z,10.78
2022-10-15T03:17:33.558Z,10.77
2022-10-15T03:20:00.230Z,10.78
2022-10-15T03:22:27.469Z,10.78
2022-10-15T03:24:53.958Z,10.81
2022-10-15T03:27:26.566Z,10.80
2022-10-15T03:29:53.630Z,10.72
2022-10-15T03:32:22.080Z,10.62
2022-10-15T03:34:48.730Z,10.57
2022-10-15T03:37:17.670Z,10.47
2022-10-15T03:39:45.091Z,10.44
2022-10-15T03:42:12.204Z,10.43
2022-10-15T03:44:44.749Z,10.37
2022-10-15T03:47:14.961Z,10.38
2022-10-15T03:49:46.661Z,10.36
2022-10-15T03:52:13.830Z,10.30
2022-10-15T03:54:41.699Z,10.24
2022-10-15T03:57:09.357Z,10.18
2022-10-15T04:02:15.985Z,10.09
2022-10-15T04:04:42.666Z,10.13
2022-10-15T04:07:09.384Z,10.16
2022-10-15T04:09:36.377Z,10.19
2022-10-15T04:12:21.590Z,10.18
2022-10-15T04:14:48.624Z,10.23
2022-10-15T04:17:15.877Z,10.23
2022-10-15T04:19:44.855Z,10.23
2022-10-15T04:22:13.351Z,10.28
2022-10-15T04:24:45.869Z,10.28
2022-10-15T04:27:17.331Z,10.29
2022-10-15T04:29:44.214Z,10.27
2022-10-15T04:32:15.385Z,10.28
2022-10-15T04:34:42.832Z,10.28
2022-10-15T04:37:10.023Z,10.30
2022-10-15T04:39:37.434Z,10.31
2022-10-15T04:42:04.213Z,10.27
2022-10-15T04:44:33.050Z,10.29
2022-10-15T04:47:00.633Z,10.29
2022-10-15T04:49:41.539Z,10.28
2022-10-15T04:52:27.831Z,10.16
2022-10-15T04:54:58.568Z,10.13
2022-10-15T04:57:27.000Z,10.12
2022-10-15T04:59:57.685Z,10.11
2022-10-15T05:02:33.807Z,10.09
2022-10-15T05:05:26.893Z,10.09
2022-10-15T05:08:04.948Z,10.09
2022-10-15T05:10:52.030Z,10.12
2022-10-15T05:13:19.104Z,10.02
2022-10-15T05:15:45.634Z,9.97
2022-10-15T05:18:12.387Z,9.96
2022-10-15T05:20:48.701Z,9.92
2022-10-15T05:23:18.250Z,9.86
2022-10-15T05:25:54.212Z,9.85
2022-10-15T05:28:23.992Z,9.78
2022-10-15T05:30:50.531Z,9.79
2022-10-15T05:33:17.088Z,9.73
2022-10-15T05:35:43.768Z,9.69
2022-10-15T05:38:10.245Z,9.66
2022-10-15T05:40:39.159Z,9.63
2022-10-15T05:43:11.146Z,9.63
2022-10-15T05:45:37.693Z,9.56
2022-10-15T05:48:06.844Z,9.51
2022-10-15T05:50:34.276Z,9.48
2022-10-15T05:53:02.883Z,9.44
2022-10-15T05:55:45.182Z,9.42
2022-10-15T05:58:11.692Z,9.47
2022-10-15T06:00:39.659Z,9.49
2022-10-15T06:03:06.245Z,9.48
2022-10-15T06:05:32.921Z,9.52
2022-10-15T06:07:59.418Z,9.56
2022-10-15T06:10:28.289Z,9.59
2022-10-15T06:12:55.574Z,9.58
2022-10-15T06:15:22.256Z,9.63
2022-10-15T06:17:53.895Z,9.67
2022-10-15T06:20:20.317Z,9.70
2022-10-15T06:22:46.827Z,9.76
2022-10-15T06:25:13.698Z,9.79
2022-10-15T06:27:40.349Z,9.83
2022-10-15T06:30:08.726Z,9.88
2022-10-15T06:32:35.183Z,9.91
2022-10-15T06:35:02.179Z,9.96
2022-10-15T06:37:30.046Z,10.03
2022-10-15T06:39:58.443Z,10.08
2022-10-15T06:42:25.107Z,10.14
2022-10-15T06:44:55.084Z,10.18
2022-10-15T06:47:22.018Z,10.23
2022-10-15T06:49:49.858Z,10.28
2022-10-15T06:52:16.361Z,10.40
2022-10-15T06:54:42.895Z,10.45
2022-10-15T06:57:10.507Z,10.54
2022-10-15T06:59:40.313Z,10.59
2022-10-15T07:02:10.056Z,10.64
2022-10-15T07:04:36.700Z,10.71
2022-10-15T07:07:03.300Z,10.82
2022-10-15T07:09:30.050Z,10.88
2022-10-15T07:11:56.589Z,10.92
2022-10-15T07:14:23.082Z,11.00
2022-10-15T07:16:49.581Z,11.04
2022-10-15T07:19:16.103Z,11.10
2022-10-15T07:21:42.808Z,11.12
2022-10-15T07:24:10.795Z,11.19
2022-10-15T07:26:37.327Z,11.25
2022-10-15T07:29:04.359Z,11.32
2022-10-15T07:31:31.503Z,11.37
2022-10-15T07:33:58.018Z,11.43
2022-10-15T07:36:25.868Z,11.46
2022-10-15T07:38:52.943Z,11.48
2022-10-15T07:41:19.475Z,11.45
2022-10-15T07:43:45.969Z,11.44
2022-10-15T07:46:12.451Z,11.46
2022-10-15T07:48:38.957Z,11.50
2022-10-15T07:51:07.362Z,11.56
2022-10-15T07:53:34.297Z,11.62
2022-10-15T07:56:03.622Z,11.71
2022-10-15T07:58:34.485Z,11.81
2022-10-15T08:01:08.813Z,11.91
2022-10-15T08:03:36.102Z,11.97
2022-10-15T08:06:07.018Z,12.04
2022-10-15T08:08:34.272Z,12.09
2022-10-15T08:11:11.737Z,12.13
2022-10-15T08:13:41.600Z,12.21
2022-10-15T08:16:13.054Z,12.30
2022-10-15T08:18:40.446Z,12.36
2022-10-15T08:21:08.124Z,12.41
2022-10-15T08:23:35.783Z,12.51
2022-10-15T08:26:03.123Z,12.58
2022-10-15T08:28:30.844Z,12.67
2022-10-15T08:31:02.646Z,12.77
2022-10-15T08:33:32.453Z,12.85
2022-10-15T08:35:58.963Z,12.89
2022-10-15T08:38:25.634Z,12.91
2022-10-15T08:40:54.784Z,12.98
2022-10-15T08:43:37.334Z,13.06
2022-10-15T08:46:11.354Z,13.14
2022-10-15T08:48:50.692Z,13.13
2022-10-15T08:51:20.260Z,13.24
2022-10-15T08:53:54.207Z,13.34
2022-10-15T08:56:37.058Z,13.46
2022-10-15T08:59:25.214Z,13.61
2022-10-15T09:02:03.156Z,13.71
2022-10-15T09:04:51.224Z,13.83
2022-10-15T09:07:34.669Z,13.94
2022-10-15T09:10:17.829Z,14.00
2022-10-15T09:13:07.259Z,14.17
2022-10-15T09:15:41.168Z,14.32
2022-10-15T09:18:17.355Z,14.31
2022-10-15T09:20:44.895Z,14.40
2022-10-15T09:23:18.976Z,14.49
2022-10-15T09:25:52.027Z,14.52
2022-10-15T09:28:21.876Z,14.59
2022-10-15T09:30:53.064Z,14.55
2022-10-15T09:33:43.680Z,14.64
2022-10-15T09:36:25.545Z,14.72
2022-10-15T09:39:04.250Z,14.84
2022-10-15T09:42:03.496Z,14.92
2022-10-15T09:44:36.586Z,14.89
2022-10-15T09:47:33.989Z,14.86
2022-10-15T09:50:03.828Z,14.77
2022-10-15T09:52:52.209Z,14.75
2022-10-15T09:55:58.019Z,14.70
2022-10-15T09:58:33.771Z,14.81
2022-10-15T10:01:05.657Z,14.89
2022-10-15T10:03:36.693Z,14.96
2022-10-15T10:06:11.942Z,15.07
2022-10-15T10:08:54.735Z,15.23
2022-10-15T10:11:24.151Z,15.26
2022-10-15T10:13:59.374Z,15.30
2022-10-15T10:16:26.999Z,15.42
2022-10-15T10:19:15.478Z,15.43
2022-10-15T10:21:43.669Z,15.43
2022-10-15T10:24:26.187Z,15.44
2022-10-15T10:26:52.759Z,15.48
2022-10-15T10:29:33.625Z,15.67
2022-10-15T10:32:28.197Z,15.69
2022-10-15T10:34:55.401Z,15.82
2022-10-15T10:37:23.011Z,15.88
2022-10-15T10:39:59.333Z,16.02
2022-10-15T10:42:38.142Z,16.10
2022-10-15T10:45:18.761Z,16.16
2022-10-15T10:47:45.829Z,16.35
2022-10-15T10:50:34.588Z,16.51
2022-10-15T10:53:19.985Z,16.60
2022-10-15T10:55:46.624Z,16.68
2022-10-15T10:58:26.316Z,16.67
2022-10-15T11:00:55.518Z,16.53
2022-10-15T11:03:38.866Z,16.46
2022-10-15T11:06:35.687Z,16.59
2022-10-15T11:09:14.583Z,16.82
2022-10-15T11:12:14.023Z,16.83
2022-10-15T11:15:30.979Z,16.97
2022-10-15T11:18:28.893Z,17.00
2022-10-15T11:21:26.320Z,16.94
2022-10-15T11:24:26.012Z,16.89
2022-10-15T11:27:10.046Z,17.04
2022-10-15T11:30:03.585Z,16.82
2022-10-15T11:32:47.779Z,16.75
2022-10-15T11:35:51.683Z,16.63
2022-10-15T11:38:24.603Z,16.51
2022-10-15T11:41:15.029Z,16.54
2022-10-15T11:43:44.184Z,16.49
2022-10-15T11:46:44.243Z,16.48
2022-10-15T11:49:54.553Z,16.50
2022-10-15T11:52:37.712Z,16.44
2022-10-15T11:55:13.829Z,16.55
2022-10-15T11:57:42.537Z,16.53
2022-10-15T12:00:27.154Z,16.60
2022-10-15T12:02:55.401Z,16.75
2022-10-15T12:05:32.226Z,16.87
2022-10-15T12:07:59.425Z,16.84
2022-10-15T12:11:03.078Z,16.85
2022-10-15T12:13:56.458Z,17.10
2022-10-15T12:16:41.734Z,17.16
2022-10-15T12:19:13.911Z,17.25
2022-10-15T12:21:45.266Z,17.41
2022-10-15T12:24:39.802Z,17.47
2022-10-15T12:27:22.814Z,17.60
2022-10-15T12:29:59.982Z,17.73
2022-10-15T12:32:36.181Z,17.71
2022-10-15T12:35:06.165Z,17.84
2022-10-15T12:37:36.065Z,17.98
2022-10-15T12:40:17.846Z,17.90
2022-10-15T12:42:44.595Z,18.03
2022-10-15T12:45:22.885Z,18.21
2022-10-15T12:47:50.227Z,18.25
2022-10-15T12:50:28.274Z,18.41
2022-10-15T12:53:18.344Z,18.45
2022-10-15T12:56:28.616Z,18.32
2022-10-15T12:58:56.459Z,18.25
2022-10-15T13:01:23.011Z,18.27
2022-10-15T13:03:52.711Z,18.13
2022-10-15T13:06:22.429Z,18.10
2022-10-15T13:09:11.960Z,18.01
2022-10-15T13:11:48.819Z,18.08
2022-10-15T13:14:36.000Z,17.96
2022-10-15T13:17:14.840Z,18.03
2022-10-15T13:19:48.344Z,18.05
2022-10-15T13:22:24.919Z,17.91
2022-10-15T13:24:52.132Z,17.75
2022-10-15T13:27:37.547Z,17.70
2022-10-15T13:30:13.172Z,17.65
2022-10-15T13:32:47.767Z,17.67
2022-10-15T13:35:33.057Z,17.66
2022-10-15T13:38:00.337Z,17.70
2022-10-15T13:40:29.457Z,17.67
2022-10-15T13:43:19.439Z,17.59
2022-10-15T13:45:47.958Z,17.45
2022-10-15T13:48:22.049Z,17.44
2022-10-15T13:50:52.945Z,17.43
2022-10-15T13:53:24.376Z,17.36
2022-10-15T13:55:54.130Z,17.32
2022-10-15T13:58:29.170Z,17.29
2022-10-15T14:01:08.389Z,17.34
2022-10-15T14:03:36.790Z,17.41
2022-10-15T14:06:19.834Z,17.52
2022-10-15T14:08:48.349Z,17.50
2022-10-15T14:11:15.393Z,17.46
2022-10-15T14:13:49.052Z,17.43
2022-10-15T14:16:19.448Z,17.49
2022-10-15T14:18:49.647Z,17.50
2022-10-15T14:21:19.793Z,17.55
2022-10-15T14:23:47.689Z,17.51
2022-10-15T14:26:16.884Z,17.55
2022-10-15T14:28:50.267Z,17.51
2022-10-15T14:31:38.361Z,17.41
2022-10-15T14:34:35.561Z,17.38
2022-10-15T14:37:03.292Z,17.45
2022-10-15T14:39:32.873Z,17.47
2022-10-15T14:42:05.231Z,17.27
2022-10-15T14:44:48.388Z,17.24
2022-10-15T14:47:24.528Z,17.19
2022-10-15T14:49:59.906Z,17.30
2022-10-15T14:52:28.864Z,17.26
2022-10-15T14:55:15.848Z,17.13
2022-10-15T14:57:45.146Z,17.12
2022-10-15T15:00:24.334Z,16.98
2022-10-15T15:02:54.218Z,16.91
2022-10-15T15:05:24.061Z,16.87
2022-10-15T15:07:51.209Z,16.80
2022-10-15T15:10:18.101Z,16.73
2022-10-15T15:12:49.879Z,16.64
2022-10-15T15:15:18.344Z,16.57
2022-10-15T15:17:45.285Z,16.44
2022-10-15T15:20:12.208Z,16.49
2022-10-15T15:22:40.319Z,16.46
2022-10-15T15:25:16.709Z,16.47
2022-10-15T15:27:43.261Z,16.35
2022-10-15T15:30:40.241Z,16.27
2022-10-15T15:33:11.628Z,16.23
2022-10-15T15:35:52.699Z,16.16
2022-10-15T15:38:21.561Z,16.08
2022-10-15T15:40:49.404Z,16.04
2022-10-15T15:43:19.166Z,16.02
2022-10-15T15:45:46.486Z,15.98
2022-10-15T15:48:14.098Z,15.99
2022-10-15T15:50:41.053Z,16.02
2022-10-15T15:53:07.570Z,15.99
2022-10-15T15:55:34.054Z,16.00
2022-10-15T15:58:00.677Z,15.91
2022-10-15T16:00:27.417Z,15.87
2022-10-15T16:02:57.764Z,15.82
2022-10-15T16:05:24.995Z,15.82
2022-10-15T16:07:51.488Z,15.85
2022-10-15T16:10:18.203Z,15.83
2022-10-15T16:12:44.768Z,15.81
2022-10-15T16:15:14.493Z,15.82
2022-10-15T16:17:43.137Z,15.80
2022-10-15T16:20:10.671Z,15.80
2022-10-15T16:22:37.119Z,15.77
2022-10-15T16:25:05.580Z,15.79
2022-10-15T16:27:34.298Z,15.78
2022-10-15T16:30:01.799Z,15.84
2022-10-15T16:32:28.416Z,15.80
2022-10-15T16:34:54.877Z,15.80
2022-10-15T16:37:21.282Z,15.78
2022-10-15T16:39:47.742Z,15.76
2022-10-15T16:42:14.223Z,15.72
2022-10-15T16:44:40.782Z,15.71
2022-10-15T16:47:08.905Z,15.65
2022-10-15T16:49:35.412Z,15.59
2022-10-15T16:52:01.955Z,15.60
2022-10-15T16:54:28.493Z,15.56
2022-10-15T16:56:55.273Z,15.56
2022-10-15T16:59:22.403Z,15.52
2022-10-15T17:01:48.919Z,15.56
2022-10-15T17:04:15.384Z,15.57
2022-10-15T17:06:42.055Z,15.59
2022-10-15T17:09:08.969Z,15.56
2022-10-15T17:11:40.959Z,15.60
2022-10-15T17:14:10.502Z,15.60
2022-10-15T17:16:40.023Z,15.58
2022-10-15T17:19:07.990Z,15.59
2022-10-15T17:21:35.553Z,15.57
2022-10-15T17:24:04.942Z,15.61
2022-10-15T17:26:36.326Z,15.59
2022-10-15T17:29:03.999Z,15.62
2022-10-15T17:31:30.875Z,15.64
2022-10-15T17:34:03.939Z,15.66
2022-10-15T17:36:32.215Z,15.65
2022-10-15T17:38:59.841Z,15.66
2022-10-15T17:41:29.435Z,15.70
2022-10-15T17:43:57.580Z,15.68
2022-10-15T17:46:27.326Z,15.72
2022-10-15T17:48:55.031Z,15.74
2022-10-15T17:51:27.151Z,15.65
2022-10-15T17:53:57.630Z,15.58
2022-10-15T17:56:30.026Z,15.53
2022-10-15T17:58:58.457Z,15.47
2022-10-15T18:01:39.352Z,15.49
2022-10-15T18:04:12.914Z,15.42
2022-10-15T18:06:43.199Z,15.37
2022-10-15T18:09:12.407Z,15.37
2022-10-15T18:11:38.945Z,15.36
2022-10-15T18:14:05.543Z,15.34
2022-10-15T18:16:32.588Z,15.30
2022-10-15T18:18:59.212Z,15.26
2022-10-15T18:21:27.458Z,15.26
2022-10-15T18:23:56.478Z,15.25
2022-10-15T18:26:23.746Z,15.27
2022-10-15T18:28:51.855Z,15.24
2022-10-15T18:31:19.279Z,15.23
2022-10-15T18:33:54.794Z,15.21
2022-10-15T18:36:24.584Z,15.21
2022-10-15T18:38:51.634Z,15.19
2022-10-15T18:41:22.401Z,15.15
2022-10-15T18:43:53.508Z,15.15
2022-10-15T18:46:20.509Z,15.12
2022-10-15T18:48:47.054Z,15.10
2022-10-15T18:51:13.567Z,15.09
2022-10-15T18:53:40.185Z,15.06
2022-10-15T18:56:08.067Z,15.07
2022-10-15T18:58:34.939Z,15.01
2022-10-15T19:01:14.354Z,14.99
2022-10-15T19:03:40.944Z,14.95
2022-10-15T19:06:08.158Z,14.99
2022-10-15T19:08:34.754Z,14.92
2022-10-15T19:11:08.586Z,14.90
2022-10-15T19:13:36.496Z,14.89
2022-10-15T19:16:04.407Z,14.90
2022-10-15T19:18:32.101Z,14.88
2022-10-15T19:20:58.831Z,14.90
2022-10-15T19:23:26.313Z,14.88
2022-10-15T19:25:52.759Z,14.85
2022-10-15T19:28:19.348Z,14.85
2022-10-15T19:30:54.713Z,14.83
2022-10-15T19:33:21.260Z,14.85
2022-10-15T19:35:47.717Z,14.84
2022-10-15T19:38:14.149Z,14.89
2022-10-15T19:40:44.745Z,14.92
2022-10-15T19:43:13.851Z,14.96
2022-10-15T19:45:45.282Z,14.93
2022-10-15T19:48:14.070Z,14.96
2022-10-15T19:50:42.333Z,14.94
2022-10-15T19:53:13.823Z,14.95
2022-10-15T19:55:40.442Z,14.99
2022-10-15T19:58:07.510Z,15.01
2022-10-15T20:00:34.453Z,15.00
2022-10-15T20:03:01.645Z,15.05
2022-10-15T20:05:28.700Z,15.04
2022-10-15T20:07:56.127Z,15.21
2022-10-15T20:10:25.991Z,15.06
2022-10-15T20:12:53.407Z,15.04
2022-10-15T20:15:20.102Z,15.06
2022-10-15T20:17:47.147Z,15.15
2022-10-15T20:20:13.615Z,15.17
2022-10-15T20:22:40.179Z,15.17
2022-10-15T20:25:06.977Z,15.04
2022-10-15T20:27:33.747Z,15.10
2022-10-15T20:30:00.202Z,15.04
2022-10-15T20:32:35.718Z,15.05
2022-10-15T20:35:04.396Z,15.03
2022-10-15T20:37:30.921Z,14.95
2022-10-15T20:42:29.064Z,14.81
2022-10-15T20:44:55.894Z,14.78
2022-10-15T20:47:24.010Z,14.82
2022-10-15T20:49:53.431Z,14.81
2022-10-15T20:52:23.003Z,14.72
2022-10-15T20:54:50.986Z,14.65
2022-10-15T20:57:17.462Z,14.68
2022-10-15T20:59:44.223Z,14.57
2022-10-15T21:02:10.658Z,14.66
2022-10-15T21:04:37.108Z,14.60
2022-10-15T21:07:03.914Z,14.53
2022-10-15T21:09:30.375Z,14.57
2022-10-15T21:11:57.045Z,14.56
2022-10-15T21:14:23.779Z,14.52
2022-10-15T21:16:50.328Z,14.39
2022-10-15T21:19:16.859Z,14.39
2022-10-15T21:21:43.369Z,14.31
2022-10-15T21:24:09.808Z,14.34
2022-10-15T21:26:36.440Z,14.39
2022-10-15T21:29:03.227Z,14.34
2022-10-15T21:31:29.987Z,14.43
2022-10-15T21:33:56.999Z,14.34
2022-10-15T21:36:26.596Z,14.22
2022-10-15T21:38:58.884Z,14.18
2022-10-15T21:41:27.127Z,14.12
2022-10-15T21:43:54.006Z,14.08
2022-10-15T21:46:20.484Z,14.05
2022-10-15T21:48:47.099Z,14.11
2022-10-15T21:51:16.748Z,14.01
2022-10-15T21:53:44.059Z,13.99
2022-10-15T21:56:11.519Z,13.95
2022-10-15T21:58:39.131Z,13.99
2022-10-15T22:01:09.888Z,14.00
2022-10-15T22:03:36.800Z,14.02
2022-10-15T22:06:03.918Z,13.94
2022-10-15T22:08:31.090Z,13.82
2022-10-15T22:11:14.055Z,13.71
2022-10-15T22:13:44.936Z,13.64
2022-10-15T22:16:12.308Z,13.55
2022-10-15T22:18:39.915Z,13.50
2022-10-15T22:21:17.163Z,13.47
2022-10-15T22:23:47.633Z,13.40
2022-10-15T22:26:16.451Z,13.34
2022-10-15T22:28:44.881Z,13.28
2022-10-15T22:31:16.472Z,13.25
2022-10-15T22:33:44.646Z,13.25
2022-10-15T22:36:17.502Z,13.23
2022-10-15T22:38:45.985Z,13.14
2022-10-15T22:41:13.421Z,13.12
2022-10-15T22:43:40.280Z,13.04
2022-10-15T22:46:07.691Z,12.96
2022-10-15T22:48:39.402Z,12.90
2022-10-15T22:51:08.603Z,12.88
2022-10-15T22:53:35.194Z,12.86
2022-10-15T22:56:04.333Z,12.82
2022-10-15T22:58:31.998Z,12.85
2022-10-15T23:01:13.298Z,12.81
2022-10-15T23:03:41.575Z,12.75
2022-10-15T23:06:08.270Z,12.75
2022-10-15T23:08:35.691Z,12.73
2022-10-15T23:11:10.850Z,12.74
2022-10-15T23:13:38.798Z,12.72
2022-10-15T23:16:11.046Z,12.65
2022-10-15T23:18:37.942Z,12.60
2022-10-15T23:21:06.708Z,12.63
2022-10-15T23:23:33.415Z,12.57
2022-10-15T23:25:59.863Z,12.52
2022-10-15T23:28:26.583Z,12.49
2022-10-15T23:30:53.143Z,12.50
2022-10-15T23:33:19.595Z,12.49
2022-10-15T23:35:46.135Z,12.47
2022-10-15T23:38:13.442Z,12.42
2022-10-15T23:40:39.890Z,12.39
2022-10-15T23:43:06.356Z,12.38
2022-10-15T23:45:34.841Z,12.38
2022-10-15T23:48:03.377Z,12.36
2022-10-15T23:50:36.452Z,12.35
2022-10-15T23:53:03.357Z,12.36
2022-10-15T23:55:29.811Z,12.36
2022-10-15T23:57:56.486Z,12.38
